createdAt,value
2022-08-26T00:00:57.199Z,47.38
2022-08-26T00:03:26.661Z,56.58
2022-08-26T00:05:56.343Z,44.85
2022-08-26T00:08:27.211Z,70.05
2022-08-26T00:10:55.922Z,57.58
2022-08-26T00:13:28.646Z,32.53
2022-08-26T00:15:59.775Z,42.63
2022-08-26T00:18:28.833Z,38.88
2022-08-26T00:21:06.123Z,48.05
2022-08-26T00:23:35.338Z,64.97
2022-08-26T00:26:04.765Z,40.75
2022-08-26T00:28:34.506Z,47.08
2022-08-26T00:31:04.896Z,34.97
2022-08-26T00:33:35.629Z,51.42
2022-08-26T00:36:05.346Z,52.55
2022-08-26T00:38:34.061Z,65.80
2022-08-26T00:41:02.829Z,45.00
2022-08-26T00:43:46.322Z,45.55
2022-08-26T00:46:21.911Z,48.05
2022-08-26T00:48:55.399Z,45.58
2022-08-26T00:51:29.777Z,57.70
2022-08-26T00:54:06.668Z,42.80
2022-08-26T00:56:47.881Z,36.47
2022-08-26T00:59:19.242Z,200.57
2022-08-26T01:01:49.509Z,356.63
2022-08-26T01:04:21.208Z,394.27
2022-08-26T01:06:52.567Z,572.83
2022-08-26T01:09:23.399Z,592.47
2022-08-26T01:11:55.867Z,579.97
2022-08-26T01:14:27.402Z,596.22
2022-08-26T01:16:57.591Z,509.38
2022-08-26T01:19:33.217Z,542.90
2022-08-26T01:22:07.945Z,505.73
2022-08-26T01:24:39.403Z,563.08
2022-08-26T01:27:12.132Z,447.40
2022-08-26T01:29:44.550Z,415.17
2022-08-26T01:32:19.748Z,373.88
2022-08-26T01:34:49.803Z,391.88
2022-08-26T01:37:24.106Z,268.02
2022-08-26T01:39:57.309Z,259.90
2022-08-26T01:42:27.527Z,244.52
2022-08-26T01:45:00.688Z,308.05
2022-08-26T01:47:32.795Z,283.48
2022-08-26T01:50:04.486Z,290.40
2022-08-26T01:52:37.274Z,290.02
2022-08-26T01:55:09.325Z,306.90
2022-08-26T01:57:38.431Z,306.38
2022-08-26T02:00:09.741Z,343.77
2022-08-26T02:02:39.230Z,301.23
2022-08-26T02:05:11.208Z,322.27
2022-08-26T02:07:40.974Z,329.75
2022-08-26T02:10:12.861Z,550.65
2022-08-26T02:12:42.684Z,471.38
2022-08-26T02:18:56.381Z,381.25
2022-08-26T02:21:25.853Z,452.20
2022-08-26T02:23:56.406Z,473.42
2022-08-26T02:26:27.283Z,446.90
2022-08-26T02:29:01.827Z,466.88
2022-08-26T02:31:31.053Z,463.55
2022-08-26T02:34:10.800Z,467.40
2022-08-26T02:36:39.827Z,461.65
2022-08-26T02:39:09.066Z,553.40
2022-08-26T02:41:44.990Z,596.55
2022-08-26T02:44:14.032Z,561.30
2022-08-26T02:46:47.054Z,610.47
2022-08-26T02:49:16.990Z,651.20
2022-08-26T02:51:45.925Z,562.30
2022-08-26T02:54:15.528Z,570.20
2022-08-26T02:56:46.269Z,581.17
2022-08-26T02:59:15.580Z,416.42
2022-08-26T03:01:45.443Z,378.30
2022-08-26T03:04:15.189Z,516.58
2022-08-26T03:06:47.061Z,532.33
2022-08-26T03:09:21.957Z,618.90
2022-08-26T03:11:55.657Z,562.45
2022-08-26T03:14:25.242Z,529.47
2022-08-26T03:16:54.953Z,564.45
2022-08-26T03:19:26.887Z,512.65
2022-08-26T03:21:57.888Z,511.70
2022-08-26T03:24:27.678Z,535.50
2022-08-26T03:26:57.949Z,524.78
2022-08-26T03:29:44.226Z,567.35
2022-08-26T03:32:18.398Z,591.08
2022-08-26T03:34:47.698Z,533.85
2022-08-26T03:37:16.526Z,546.70
2022-08-26T03:39:46.026Z,558.47
2022-08-26T03:42:16.310Z,539.72
2022-08-26T03:44:45.122Z,513.47
2022-08-26T03:47:13.720Z,513.90
2022-08-26T03:49:42.378Z,520.15
2022-08-26T03:52:11.022Z,493.80
2022-08-26T03:54:39.983Z,494.90
2022-08-26T03:57:08.864Z,467.90
2022-08-26T03:59:38.920Z,462.13
2022-08-26T04:02:11.645Z,468.83
2022-08-26T04:04:40.623Z,458.52
2022-08-26T04:07:09.382Z,410.00
2022-08-26T04:09:38.039Z,383.20
2022-08-26T04:12:10.036Z,378.25
2022-08-26T04:14:40.529Z,369.25
2022-08-26T04:17:09.198Z,392.25
2022-08-26T04:19:37.910Z,362.77
2022-08-26T04:22:06.804Z,352.60
2022-08-26T04:24:36.445Z,350.92
2022-08-26T04:27:05.163Z,391.02
2022-08-26T04:29:36.790Z,374.77
2022-08-26T04:32:09.879Z,407.08
2022-08-26T04:34:39.123Z,406.55
2022-08-26T04:37:09.248Z,365.38
2022-08-26T04:39:38.611Z,346.23
2022-08-26T04:42:07.870Z,379.42
2022-08-26T04:44:39.048Z,293.33
2022-08-26T04:47:09.902Z,290.40
2022-08-26T04:49:40.081Z,283.98
2022-08-26T04:52:10.100Z,240.93
2022-08-26T04:54:39.219Z,252.32
2022-08-26T04:57:10.616Z,230.20
2022-08-26T04:59:39.652Z,215.60
2022-08-26T05:02:09.697Z,246.10
2022-08-26T05:04:38.440Z,240.25
2022-08-26T05:07:08.213Z,235.55
2022-08-26T05:09:38.504Z,229.80
2022-08-26T05:12:07.674Z,202.73
2022-08-26T05:14:37.939Z,229.35
2022-08-26T05:17:06.755Z,272.10
2022-08-26T05:19:37.355Z,352.85
2022-08-26T05:22:13.246Z,452.48
2022-08-26T05:24:42.072Z,474.80
2022-08-26T05:27:11.793Z,461.85
2022-08-26T05:29:41.717Z,446.13
2022-08-26T05:32:11.253Z,393.95
2022-08-26T05:34:42.947Z,164.63
2022-08-26T05:37:13.632Z,72.18
2022-08-26T05:39:43.568Z,15.75
2022-08-26T05:42:20.372Z,12.25
2022-08-26T05:44:55.930Z,11.52
2022-08-26T05:47:25.058Z,17.15
2022-08-26T05:49:56.253Z,15.07
2022-08-26T05:52:26.101Z,21.40
2022-08-26T05:54:55.459Z,48.95
2022-08-26T05:57:24.073Z,29.63
2022-08-26T05:59:53.277Z,26.88
2022-08-26T06:02:22.019Z,31.20
2022-08-26T06:04:51.386Z,21.40
2022-08-26T06:07:42.492Z,21.63
2022-08-26T06:10:32.370Z,23.27
2022-08-26T06:13:09.278Z,30.83
2022-08-26T06:15:46.554Z,15.10
2022-08-26T06:18:18.274Z,16.48
2022-08-26T06:20:49.523Z,17.70
2022-08-26T06:23:47.578Z,21.75
2022-08-26T06:26:17.588Z,26.65
2022-08-26T06:28:46.486Z,16.80
2022-08-26T06:31:16.158Z,15.82
2022-08-26T06:33:45.400Z,13.88
2022-08-26T06:36:19.524Z,14.07
2022-08-26T06:38:51.095Z,14.60
2022-08-26T06:41:21.266Z,14.00
2022-08-26T06:43:50.196Z,15.13
2022-08-26T06:46:20.645Z,15.82
2022-08-26T06:48:50.458Z,14.52
2022-08-26T06:51:22.356Z,17.27
2022-08-26T06:53:55.460Z,16.52
2022-08-26T06:56:26.730Z,18.80
2022-08-26T06:58:55.915Z,16.85
2022-08-26T07:01:26.703Z,16.48
2022-08-26T07:03:57.720Z,16.42
2022-08-26T07:06:27.666Z,17.98
2022-08-26T07:09:05.061Z,20.33
2022-08-26T07:11:35.103Z,21.67
2022-08-26T07:14:04.559Z,21.95
2022-08-26T07:16:33.212Z,19.00
2022-08-26T07:19:03.490Z,23.58
2022-08-26T07:21:41.743Z,25.80
2022-08-26T07:24:12.355Z,20.33
2022-08-26T07:26:42.948Z,17.48
2022-08-26T07:29:12.898Z,18.92
2022-08-26T07:31:42.979Z,19.90
2022-08-26T07:34:13.928Z,19.10
2022-08-26T07:36:42.766Z,21.08
2022-08-26T07:39:12.757Z,24.33
2022-08-26T07:41:41.541Z,20.27
2022-08-26T07:44:11.480Z,19.20
2022-08-26T07:46:40.342Z,18.00
2022-08-26T07:49:09.237Z,20.55
2022-08-26T07:51:38.555Z,20.17
2022-08-26T07:54:07.619Z,22.80
2022-08-26T07:56:38.338Z,20.40
2022-08-26T07:59:13.835Z,18.90
2022-08-26T08:01:45.183Z,19.00
2022-08-26T08:04:14.487Z,20.13
2022-08-26T08:06:44.005Z,19.88
2022-08-26T08:09:13.167Z,19.75
2022-08-26T08:11:43.527Z,21.55
2022-08-26T08:14:13.597Z,21.33
2022-08-26T08:16:45.993Z,21.80
2022-08-26T08:19:16.202Z,20.88
2022-08-26T08:21:45.011Z,23.05
2022-08-26T08:24:13.757Z,21.65
2022-08-26T08:26:44.395Z,20.27
2022-08-26T08:29:13.318Z,20.60
2022-08-26T08:31:58.449Z,20.15
2022-08-26T08:34:28.704Z,20.73
2022-08-26T08:36:58.042Z,22.33
2022-08-26T08:39:27.209Z,21.60
2022-08-26T08:42:23.528Z,21.30
2022-08-26T08:44:57.555Z,18.83
2022-08-26T08:47:34.472Z,19.48
2022-08-26T08:50:13.209Z,21.85
2022-08-26T08:52:46.188Z,19.15
2022-08-26T08:55:18.292Z,22.00
2022-08-26T08:58:02.201Z,25.20
2022-08-26T09:00:40.083Z,23.10
2022-08-26T09:03:19.015Z,22.50
2022-08-26T09:05:51.680Z,26.10
2022-08-26T09:08:27.631Z,28.42
2022-08-26T09:10:59.806Z,26.60
2022-08-26T09:13:31.803Z,55.55
2022-08-26T09:16:09.896Z,49.08
2022-08-26T09:18:55.499Z,55.55
2022-08-26T09:21:26.286Z,46.70
2022-08-26T09:23:57.330Z,61.92
2022-08-26T09:26:30.765Z,63.08
2022-08-26T09:29:03.051Z,69.20
2022-08-26T09:31:35.484Z,70.40
2022-08-26T09:34:17.481Z,70.82
2022-08-26T09:36:48.928Z,66.78
2022-08-26T09:39:39.341Z,67.20
2022-08-26T09:42:12.015Z,73.00
2022-08-26T09:45:00.357Z,117.55
2022-08-26T09:47:35.143Z,82.75
2022-08-26T09:50:12.344Z,82.22
2022-08-26T09:52:42.898Z,84.10
2022-08-26T09:55:15.607Z,161.43
2022-08-26T09:57:51.102Z,69.57
2022-08-26T10:00:31.139Z,62.90
2022-08-26T10:03:01.948Z,58.47
2022-08-26T10:05:35.989Z,68.95
2022-08-26T10:08:23.246Z,61.60
2022-08-26T10:10:53.122Z,77.68
2022-08-26T10:13:29.540Z,75.43
2022-08-26T10:16:10.643Z,91.35
2022-08-26T10:18:43.896Z,74.95
2022-08-26T10:21:18.046Z,52.83
2022-08-26T10:23:50.600Z,49.13
2022-08-26T10:26:26.779Z,49.83
2022-08-26T10:29:06.673Z,59.63
2022-08-26T10:31:42.677Z,55.92
2022-08-26T10:34:12.587Z,152.75
2022-08-26T10:37:14.866Z,119.15
2022-08-26T10:39:46.822Z,109.40
2022-08-26T10:42:23.654Z,106.38
2022-08-26T10:44:58.468Z,111.25
2022-08-26T10:47:36.325Z,110.78
2022-08-26T10:50:07.074Z,109.45
2022-08-26T10:52:51.056Z,112.97
2022-08-26T10:55:27.753Z,101.00
2022-08-26T10:58:04.720Z,86.85
2022-08-26T11:01:10.445Z,93.13
2022-08-26T11:03:47.074Z,83.50
2022-08-26T11:06:29.887Z,74.95
2022-08-26T11:09:00.008Z,96.30
2022-08-26T11:11:50.506Z,129.68
2022-08-26T11:14:53.659Z,99.97
2022-08-26T11:18:00.449Z,80.65
2022-08-26T11:20:41.869Z,81.88
2022-08-26T11:23:40.371Z,512.63
2022-08-26T11:26:27.478Z,646.08
2022-08-26T11:29:12.132Z,182.57
2022-08-26T11:31:57.626Z,114.57
2022-08-26T11:34:56.380Z,112.97
2022-08-26T11:37:33.037Z,82.55
2022-08-26T11:40:04.366Z,94.78
2022-08-26T11:42:39.759Z,65.93
2022-08-26T11:45:19.545Z,64.35
2022-08-26T11:47:49.446Z,73.05
2022-08-26T11:50:23.601Z,82.35
2022-08-26T11:52:56.273Z,91.05
2022-08-26T11:55:26.217Z,91.90
2022-08-26T11:58:00.304Z,70.45
2022-08-26T12:00:33.376Z,76.75
2022-08-26T12:03:07.852Z,67.25
2022-08-26T12:05:43.622Z,78.88
2022-08-26T12:08:18.040Z,86.10
2022-08-26T12:10:48.527Z,65.80
2022-08-26T12:13:23.468Z,70.43
2022-08-26T12:16:00.074Z,81.32
2022-08-26T12:18:32.788Z,74.25
2022-08-26T12:21:12.962Z,79.60
2022-08-26T12:23:46.742Z,66.13
2022-08-26T12:26:24.047Z,81.78
2022-08-26T12:28:57.439Z,75.43
2022-08-26T12:31:31.488Z,78.18
2022-08-26T12:34:02.612Z,89.35
2022-08-26T12:36:34.615Z,94.07
2022-08-26T12:39:16.885Z,99.55
2022-08-26T12:41:50.255Z,97.43
2022-08-26T12:44:53.965Z,92.15
2022-08-26T12:47:40.079Z,89.45
2022-08-26T12:50:19.559Z,92.13
2022-08-26T12:52:59.077Z,102.63
2022-08-26T12:55:39.085Z,114.78
2022-08-26T12:58:30.290Z,115.93
2022-08-26T13:01:20.509Z,106.47
2022-08-26T13:03:49.777Z,104.57
2022-08-26T13:06:27.663Z,119.80
2022-08-26T13:08:58.454Z,308.53
2022-08-26T13:11:32.544Z,143.10
2022-08-26T13:14:03.225Z,126.20
2022-08-26T13:16:36.989Z,136.68
2022-08-26T13:19:25.645Z,119.90
2022-08-26T13:21:56.951Z,202.95
2022-08-26T13:24:30.141Z,136.70
2022-08-26T13:27:00.876Z,112.78
2022-08-26T13:29:29.662Z,114.68
2022-08-26T13:32:00.413Z,121.50
2022-08-26T13:34:29.795Z,111.82
2022-08-26T13:36:58.714Z,121.20
2022-08-26T13:39:28.481Z,105.13
2022-08-26T13:41:57.310Z,118.43
2022-08-26T13:44:27.663Z,119.43
2022-08-26T13:46:56.729Z,121.57
2022-08-26T13:49:25.617Z,110.28
2022-08-26T13:51:54.423Z,108.18
2022-08-26T13:54:23.120Z,114.40
2022-08-26T13:56:52.115Z,107.25
2022-08-26T13:59:20.882Z,103.53
2022-08-26T14:01:51.129Z,105.85
2022-08-26T14:04:23.328Z,103.30
2022-08-26T14:06:56.242Z,94.88
2022-08-26T14:09:24.957Z,103.20
2022-08-26T14:11:54.224Z,86.53
2022-08-26T14:14:23.718Z,99.35
2022-08-26T14:16:59.375Z,101.28
2022-08-26T14:19:30.245Z,89.53
2022-08-26T14:22:01.048Z,87.28
2022-08-26T14:24:30.613Z,88.45
2022-08-26T14:26:59.698Z,84.45
2022-08-26T14:29:28.576Z,88.03
2022-08-26T14:32:01.580Z,79.40
2022-08-26T14:34:31.614Z,85.85
2022-08-26T14:37:07.299Z,96.25
2022-08-26T14:39:37.441Z,91.05
2022-08-26T14:42:06.732Z,85.32
2022-08-26T14:44:35.742Z,99.93
2022-08-26T14:47:08.083Z,94.10
2022-08-26T14:49:37.145Z,96.25
2022-08-26T14:52:06.299Z,87.60
2022-08-26T14:54:33.952Z,87.30
2022-08-26T14:57:06.341Z,95.78
2022-08-26T14:59:37.219Z,77.50
2022-08-26T15:02:08.991Z,93.05
2022-08-26T15:04:43.276Z,126.18
2022-08-26T15:07:12.661Z,95.70
2022-08-26T15:09:41.761Z,88.70
2022-08-26T15:12:10.736Z,88.63
2022-08-26T15:14:39.965Z,85.25
2022-08-26T15:17:10.435Z,82.05
2022-08-26T15:19:39.830Z,104.40
2022-08-26T15:22:08.589Z,92.35
2022-08-26T15:24:37.352Z,89.57
2022-08-26T15:27:06.113Z,83.88
2022-08-26T15:29:36.207Z,83.80
2022-08-26T15:32:05.934Z,81.47
2022-08-26T15:34:36.116Z,89.22
2022-08-26T15:37:05.699Z,73.65
2022-08-26T15:39:34.459Z,85.13
2022-08-26T15:42:03.453Z,300.50
2022-08-26T15:44:34.264Z,126.25
2022-08-26T15:47:03.145Z,97.50
2022-08-26T15:49:32.359Z,90.47
2022-08-26T15:52:05.323Z,72.85
2022-08-26T15:54:34.646Z,76.72
2022-08-26T15:57:10.774Z,63.20
2022-08-26T15:59:41.767Z,59.95
2022-08-26T16:02:10.862Z,57.15
2022-08-26T16:04:39.609Z,58.42
2022-08-26T16:07:10.419Z,48.80
2022-08-26T16:09:39.270Z,52.15
2022-08-26T16:12:08.182Z,53.03
2022-08-26T16:14:37.182Z,47.00
2022-08-26T16:17:05.980Z,44.08
2022-08-26T16:19:34.677Z,50.97
2022-08-26T16:22:03.355Z,43.63
2022-08-26T16:24:33.675Z,42.38
2022-08-26T16:27:02.658Z,39.60
2022-08-26T16:29:32.896Z,41.97
2022-08-26T16:32:08.747Z,45.35
2022-08-26T16:34:37.834Z,41.00
2022-08-26T16:37:16.062Z,34.97
2022-08-26T16:39:46.196Z,37.17
2022-08-26T16:42:15.621Z,37.83
2022-08-26T16:44:45.767Z,39.00
2022-08-26T16:47:16.170Z,135.57
2022-08-26T16:49:45.009Z,57.90
2022-08-26T16:52:14.235Z,42.60
2022-08-26T16:54:43.463Z,38.92
2022-08-26T16:57:16.511Z,32.63
2022-08-26T16:59:45.306Z,33.50
2022-08-26T17:02:14.292Z,34.50
2022-08-26T17:04:46.152Z,29.92
2022-08-26T17:07:18.994Z,28.83
2022-08-26T17:09:47.861Z,25.05
2022-08-26T17:12:18.006Z,28.35
2022-08-26T17:14:46.862Z,25.40
2022-08-26T17:17:15.760Z,24.55
2022-08-26T17:19:47.274Z,24.23
2022-08-26T17:22:16.787Z,21.85
2022-08-26T17:24:45.579Z,25.60
2022-08-26T17:27:14.876Z,24.95
2022-08-26T17:29:44.982Z,23.63
2022-08-26T17:32:13.743Z,21.70
2022-08-26T17:34:42.593Z,33.47
2022-08-26T17:37:14.134Z,33.97
2022-08-26T17:39:53.398Z,34.00
2022-08-26T17:42:22.272Z,29.83
2022-08-26T17:45:02.076Z,27.45
2022-08-26T17:47:30.850Z,28.95
2022-08-26T17:50:01.734Z,136.00
2022-08-26T17:52:31.147Z,36.35
2022-08-26T17:55:01.515Z,30.10
2022-08-26T17:57:31.290Z,219.33
2022-08-26T18:00:01.595Z,37.05
2022-08-26T18:05:04.461Z,31.73
2022-08-26T18:07:34.932Z,29.63
2022-08-26T18:10:16.250Z,29.23
2022-08-26T18:12:45.417Z,31.08
2022-08-26T18:15:17.769Z,29.40
2022-08-26T18:17:46.984Z,28.25
2022-08-26T18:20:18.335Z,25.42
2022-08-26T18:22:48.647Z,21.00
2022-08-26T18:25:18.458Z,19.02
2022-08-26T18:27:47.350Z,19.58
2022-08-26T18:30:21.601Z,18.95
2022-08-26T18:32:52.335Z,17.00
2022-08-26T18:35:21.668Z,16.15
2022-08-26T18:37:50.349Z,15.38
2022-08-26T18:40:19.055Z,14.95
2022-08-26T18:42:49.341Z,16.42
2022-08-26T18:45:25.605Z,17.15
2022-08-26T18:47:55.564Z,18.75
2022-08-26T18:50:24.575Z,25.10
2022-08-26T18:52:53.312Z,184.65
2022-08-26T18:55:22.506Z,34.10
2022-08-26T18:57:51.473Z,25.30
2022-08-26T19:00:20.449Z,26.75
2022-08-26T19:02:51.830Z,26.13
2022-08-26T19:05:21.301Z,27.48
2022-08-26T19:07:49.990Z,27.48
2022-08-26T19:10:18.780Z,27.65
2022-08-26T19:12:47.506Z,29.77
2022-08-26T19:15:21.258Z,33.00
2022-08-26T19:17:51.330Z,32.10
2022-08-26T19:20:20.231Z,35.30
2022-08-26T19:22:49.038Z,34.85
2022-08-26T19:25:18.680Z,35.22
2022-08-26T19:27:48.114Z,35.58
2022-08-26T19:30:17.599Z,33.00
2022-08-26T19:32:48.601Z,38.15
2022-08-26T19:35:18.795Z,39.30
2022-08-26T19:37:48.221Z,39.53
2022-08-26T19:40:17.316Z,42.28
2022-08-26T19:42:47.606Z,42.63
2022-08-26T19:45:24.669Z,45.60
2022-08-26T19:47:54.373Z,43.03
2022-08-26T19:50:26.483Z,43.88
2022-08-26T19:52:55.357Z,44.33
2022-08-26T19:55:26.334Z,40.53
2022-08-26T19:57:55.423Z,42.47
2022-08-26T20:00:29.471Z,97.07
2022-08-26T20:02:58.272Z,55.03
2022-08-26T20:05:29.307Z,50.20
2022-08-26T20:07:58.179Z,56.53
2022-08-26T20:10:27.093Z,49.38
2022-08-26T20:12:58.755Z,43.63
2022-08-26T20:15:28.428Z,48.78
2022-08-26T20:17:58.029Z,44.28
2022-08-26T20:20:45.591Z,44.55
2022-08-26T20:23:17.084Z,37.47
2022-08-26T20:25:46.890Z,42.70
2022-08-26T20:28:19.115Z,49.75
2022-08-26T20:30:48.068Z,43.25
2022-08-26T20:33:17.423Z,45.55
2022-08-26T20:35:50.691Z,46.83
2022-08-26T20:38:21.505Z,50.95
2022-08-26T20:40:51.999Z,49.65
2022-08-26T20:43:24.987Z,41.80
2022-08-26T20:45:54.571Z,42.22
2022-08-26T20:48:23.801Z,38.03
2022-08-26T20:50:57.686Z,36.78
2022-08-26T20:53:27.375Z,36.25
2022-08-26T20:56:00.723Z,38.22
2022-08-26T20:58:30.018Z,35.63
2022-08-26T21:00:59.877Z,33.13
2022-08-26T21:03:31.261Z,35.55
2022-08-26T21:06:04.934Z,36.30
2022-08-26T21:08:33.621Z,33.70
2022-08-26T21:11:02.519Z,34.35
2022-08-26T21:13:48.334Z,35.55
2022-08-26T21:16:22.994Z,37.90
2022-08-26T21:18:51.795Z,36.65
2022-08-26T21:21:24.934Z,30.92
2022-08-26T21:23:55.501Z,32.78
2022-08-26T21:26:26.124Z,27.35
2022-08-26T21:28:55.346Z,26.42
2022-08-26T21:31:26.306Z,25.15
2022-08-26T21:33:55.391Z,24.20
2022-08-26T21:36:25.628Z,23.75
2022-08-26T21:38:56.459Z,23.67
2022-08-26T21:41:26.865Z,21.90
2022-08-26T21:43:59.473Z,26.83
2022-08-26T21:46:31.388Z,25.85
2022-08-26T21:49:02.400Z,33.05
2022-08-26T21:51:35.710Z,29.55
2022-08-26T21:54:10.487Z,20.10
2022-08-26T21:56:44.863Z,32.35
2022-08-26T21:59:14.921Z,15.77
2022-08-26T22:01:43.781Z,30.95
2022-08-26T22:04:12.501Z,215.73
2022-08-26T22:06:44.946Z,19.92
2022-08-26T22:09:15.564Z,24.05
2022-08-26T22:11:45.949Z,29.50
2022-08-26T22:14:15.228Z,26.90
2022-08-26T22:16:48.978Z,29.63
2022-08-26T22:19:20.480Z,25.45
2022-08-26T22:21:55.535Z,26.95
2022-08-26T22:24:27.007Z,26.52
2022-08-26T22:26:57.185Z,25.20
2022-08-26T22:29:27.365Z,26.48
2022-08-26T22:31:57.565Z,27.73
2022-08-26T22:34:26.451Z,27.23
2022-08-26T22:36:57.139Z,26.30
2022-08-26T22:39:28.100Z,37.97
2022-08-26T22:41:57.454Z,27.35
2022-08-26T22:44:26.864Z,24.90
2022-08-26T22:46:55.911Z,25.58
2022-08-26T22:49:25.225Z,21.90
2022-08-26T22:51:54.149Z,30.80
2022-08-26T22:54:24.330Z,29.92
2022-08-26T22:56:53.691Z,22.10
2022-08-26T22:59:22.406Z,24.13
2022-08-26T23:01:51.897Z,22.38
2022-08-26T23:04:21.035Z,27.17
2022-08-26T23:06:49.883Z,37.72
2022-08-26T23:09:20.082Z,55.97
2022-08-26T23:11:51.957Z,79.63
2022-08-26T23:14:21.241Z,71.25
2022-08-26T23:16:50.231Z,33.90
2022-08-26T23:19:21.137Z,25.40
2022-08-26T23:21:50.914Z,26.17
2022-08-26T23:24:19.804Z,28.30
2022-08-26T23:26:48.563Z,33.90
2022-08-26T23:29:18.760Z,36.10
2022-08-26T23:31:47.594Z,47.88
2022-08-26T23:34:34.283Z,30.13
2022-08-26T23:37:04.870Z,37.90
2022-08-26T23:39:36.519Z,55.70
2022-08-26T23:42:06.808Z,70.80
2022-08-26T23:44:37.043Z,44.30
2022-08-26T23:47:06.650Z,38.55
2022-08-26T23:49:36.161Z,46.90
2022-08-26T23:52:24.061Z,37.80
2022-08-26T23:54:53.141Z,45.65
2022-08-26T23:57:24.218Z,46.33
2022-08-26T23:59:54.920Z,52.45
